Friday, January 18, 2019, 1:19 AM GMT
Back to Local

CYUL, Montreal / Pierre Elliot Trudeau International Airport, Que

Location: , , Canada Lat: 45.467
Local Time: 1:19 AM GMT ( 1:19 GMT) Lon: -73.75
Time Zone: GMT Elev: 101 ft

Show me the last for .
Show Decoded

2019-01-18 01:00 METAR CYUL 180100Z 04005KT 15SM FEW120 SCT160 OVC220 M15/M20 A3030 RMK AC1AC3CI4
                 SLP265 =
2019-01-18 00:00 METAR CYUL 180000Z 01003KT 15SM FEW120 SCT160 BKN240 M15/M20 A3032 RMK AC1AC3CI3
                 SLP273 =
2019-01-17 23:00 METAR CYUL 172300Z 12005KT 15SM FEW120 BKN240 M15/M21 A3034 RMK AC2CI5 SLP279 =
2019-01-17 22:00 METAR CYUL 172200Z 26002KT 15SM FEW180 SCT240 M15/M24 A3034 RMK AC1CI3 SLP280 =
2019-01-17 21:00 METAR CYUL 172100Z VRB02KT 30SM FEW160 SCT240 M15/M24 A3035 RMK AC1CI3 SLP282 =
2019-01-17 20:00 METAR CYUL 172000Z 22006KT 30SM FEW240 M15/M23 A3037 RMK CI2 SLP290 =
2019-01-17 19:00 METAR CYUL 171900Z 24007KT 30SM FEW240 M15/M23 A3039 RMK CI1 SLP297 =
2019-01-17 18:00 METAR CYUL 171800Z 21008KT 30SM FEW240 M15/M22 A3041 RMK CI1 SLP304 =
2019-01-17 17:00 METAR CYUL 171700Z 22003KT 190V310 30SM FEW240 M16/M23 A3044 RMK CI1 SLP313 =
2019-01-17 16:00 METAR CYUL 171600Z 27007KT 30SM FEW015 FEW250 M17/M24 A3047 RMK CF1CI1 CF TR CI
                 TR SLP322 =
2019-01-17 15:00 METAR CYUL 171500Z 27003KT 30SM FEW010 FEW250 M18/M25 A3047 RMK CF1CI1 CF TR CI
                 TR SLP325 =
2019-01-17 14:00 METAR CYUL 171400Z 29006KT 30SM FEW250 M19/M25 A3046 RMK CI1 CI TR SLP320 =
2019-01-17 13:00 METAR CYUL 171300Z VRB02KT 30SM FEW250 M20/M25 A3045 RMK CI1 SLP316 =
2019-01-17 12:00 METAR CYUL 171200Z 30006KT 15SM FEW250 M20/M25 A3044 RMK CI1 CI TR SLP313 =
2019-01-17 11:00 METAR CYUL 171100Z 28003KT 240V310 15SM FEW250 M20/M25 A3042 RMK CI1 SLP308 =
2019-01-17 10:00 METAR CYUL 171000Z 27008KT 15SM SKC M20/M25 A3041 RMK SLP301 =
2019-01-17 09:00 METAR CYUL 170900Z 28007KT 15SM SKC M19/M25 A3039 RMK SLP296 =
2019-01-17 08:00 METAR CYUL 170800Z 28009KT 15SM SKC M18/M24 A3038 RMK SLP292 =
2019-01-17 07:00 METAR CYUL 170700Z 28009KT 15SM SKC M18/M24 A3036 RMK SLP286 =
2019-01-17 06:00 METAR CYUL 170600Z 28007KT 15SM SKC M18/M24 A3034 RMK SLP278 =
2019-01-17 05:00 METAR CYUL 170500Z 28007KT 15SM SKC M17/M23 A3032 RMK SLP273 =
2019-01-17 04:00 METAR CYUL 170400Z 29009KT 15SM SKC M16/M23 A3031 RMK SLP269 =
2019-01-17 03:00 METAR CYUL 170300Z 29009KT 15SM FEW017 M15/M21 A3029 RMK CF1 CF TR SLP261 =
2019-01-17 02:00 METAR CYUL 170200Z 28010KT 15SM FEW015 M14/M21 A3026 RMK CF1 CF TR SLP250 =

Support USWX by starting your Amazon purchase here.